• Join FlightAware (Why Join?)
  • Login
  • US Flag 
11:31AM EDT


 

Airport Tracker/Info


-or-


 

Live Flight TrackerFlight Track Log ✈ CPA80 ✈ 25-Apr-2013 ✈ PANC - KORD

Flight Track Log - Related Links

Times and Time Zones

All times are in EDT time to prevent confusion due to time zone crossing. See the CPA80 flight status page for this flight to view local times or setup timezone preferences in your user account.

Time Position Orientation Groundspeed Altitude Reporting Facility
EDT Latitude Longitude Course Direction KTS MPH feet Rate Location/Type
03:59PM 61.3500 -149.8833 90° East 270 311 7,900  Level Anchorage Center
04:00PM 61.3333 -149.7500 105° East 270 311 10,200 2,340 Climbing Anchorage Center
04:01PM 61.0168 -147.9671 90° East  Level FlightAware Approximate
04:01PM 61.3167 -149.5833 102° East 290 334 12,700  Level Anchorage Center
04:02PM 61.0190 -147.6661 86° East  Level FlightAware Approximate
04:02PM 61.3167 -149.4000 90° East 300 345 15,200  Level Anchorage Center
04:03PM 61.0291 -147.3656 86° East  Level FlightAware Approximate
04:04PM 61.0335 -147.0647 90° East  Level FlightAware Approximate
04:04PM 61.3167 -149.0167 90° East 390 449 17,800  Level Anchorage Center
04:05PM 61.3167 -148.7833 90° East 410 472 20,700 2,340 Climbing Anchorage Center
04:06PM 61.3000 -148.5333 98° East 420 483 22,500 1,860 Climbing Anchorage Center
04:07PM 61.3000 -148.2833 90° East 440 506 24,500 1,800 Climbing Anchorage Center
04:08PM 61.3000 -148.0167 90° East 460 529 26,100 1,620 Climbing Anchorage Center
04:09PM 61.2833 -147.7333 97° East 470 541 27,800 1,800 Climbing Anchorage Center
04:10PM 61.2833 -147.4167 90° East 500 575 29,700 1,620 Climbing Anchorage Center
04:11PM 61.2667 -147.1333 97° East 490 564 31,100 1,800 Climbing Anchorage Center
04:12PM 61.2667 -146.8333 90° East 500 575 33,300 1,920 Climbing Anchorage Center
04:13PM 61.2500 -146.5500 97° East 490 564 35,000 840 Climbing Anchorage Center
04:14PM 61.2500 -146.2667 90° East 490 564 35,000  Level Anchorage Center
04:15PM 61.2333 -145.9833 97° East 490 564 35,000  Level Anchorage Center
04:16PM 61.2167 -145.7000 97° East 490 564 35,000  Level Anchorage Center
04:17PM 61.2167 -145.4167 90° East 490 564 35,000  Level Anchorage Center
04:18PM 61.2000 -145.1167 96° East 490 564 35,000  Level Anchorage Center
04:19PM 61.1833 -144.8333 97° East 490 564 35,000  Level Anchorage Center
04:20PM 61.1833 -144.6000 90° East 500 575 35,000  Level Anchorage Center
04:21PM 61.1667 -144.2667 96° East 500 575 35,000  Level Anchorage Center
04:22PM 61.1500 -143.9667 96° East 500 575 35,000  Level Anchorage Center
04:23PM 61.1333 -143.7333 98° East 490 564 35,000  Level Anchorage Center
04:24PM 61.1167 -143.4500 97° East 500 575 35,000  Level Anchorage Center
04:25PM 61.1000 -143.1667 97° East 500 575 35,000  Level Anchorage Center
04:26PM 61.0833 -142.8667 96° East 500 575 35,000  Level Anchorage Center
04:27PM 61.0667 -142.5833 97° East 510 587 35,000  Level Anchorage Center
04:28PM 61.0333 -142.2833 103° East 510 587 35,000  Level Anchorage Center
04:29PM 61.0167 -141.9833 96° East 510 587 35,000  Level Anchorage Center
04:30PM 61.0000 -141.7000 97° East 510 587 35,000  Level Anchorage Center
04:31PM 60.9833 -141.4167 97° East 510 587 35,000  Level Anchorage Center
04:32PM 60.9667 -141.1167 96° East 510 587 35,000  Level Anchorage Center
04:33PM 60.9500 -140.8167 96° East 510 587 35,000  Level Anchorage Center
04:35PM 60.9286 -140.3460 95° East  Level FlightAware Approximate
04:42PM 60.8276 -138.2919 95° East  Level FlightAware Approximate
04:43PM 60.8113 -137.9994 96° East  Level FlightAware Approximate
04:44PM 60.7944 -137.7073 97° East  Level FlightAware Approximate
04:45PM 60.7768 -137.4155 97° East  Level FlightAware Approximate
04:46PM 60.7586 -137.1239 97° East  Level FlightAware Approximate
04:47PM 60.7397 -136.8328 97° East  Level FlightAware Approximate
04:48PM 60.7203 -136.5419 98° East  Level FlightAware Approximate
04:49PM 60.7002 -136.2515 98° East  Level FlightAware Approximate
04:50PM 60.6795 -135.9614 98° East  Level FlightAware Approximate
04:51PM 60.6581 -135.6716 98° East  Level FlightAware Approximate
04:52PM 60.6361 -135.3823 99° East  Level FlightAware Approximate
04:53PM 60.6150 -135.0930 95° East  Level FlightAware Approximate
04:54PM 60.6023 -134.8017 95° East  Level FlightAware Approximate
04:55PM 60.5890 -134.5106 95° East  Level FlightAware Approximate
04:56PM 60.5751 -134.2198 95° East  Level FlightAware Approximate
04:57PM 60.5606 -133.9292 96° East  Level FlightAware Approximate
04:58PM 60.5454 -133.6389 96° East  Level FlightAware Approximate
04:59PM 60.5296 -133.3489 96° East  Level FlightAware Approximate
05:00PM 60.5132 -133.0592 96° East  Level FlightAware Approximate
05:01PM 60.4961 -132.7698 97° East  Level FlightAware Approximate
05:02PM 60.4785 -132.4806 97° East  Level FlightAware Approximate
05:03PM 60.4601 -132.1918 97° East  Level FlightAware Approximate
05:04PM 60.4412 -131.9034 97° East  Level FlightAware Approximate
05:05PM 60.4216 -131.6152 98° East  Level FlightAware Approximate
05:06PM 60.4015 -131.3275 98° East  Level FlightAware Approximate
05:07PM 60.3807 -131.0400 98° East  Level FlightAware Approximate
05:08PM 60.3593 -130.7530 98° East  Level FlightAware Approximate
05:09PM 60.3372 -130.4663 99° East  Level FlightAware Approximate
05:10PM 60.3146 -130.1801 99° East  Level FlightAware Approximate
05:11PM 60.2915 -129.8941 99° East  Level FlightAware Approximate
05:12PM 60.2682 -129.6085 99° East  Level FlightAware Approximate
05:13PM 60.2442 -129.3233 99° East  Level FlightAware Approximate
05:14PM 60.2196 -129.0385 100° East  Level FlightAware Approximate
05:15PM 60.1944 -128.7541 100° East  Level FlightAware Approximate
05:16PM 60.1686 -128.4702 100° East  Level FlightAware Approximate
05:17PM 60.1422 -128.1867 100° East  Level FlightAware Approximate
05:18PM 60.1152 -127.9037 101° East  Level FlightAware Approximate
05:19PM 60.0876 -127.6211 101° East  Level FlightAware Approximate
05:20PM 60.0594 -127.3390 101° East  Level FlightAware Approximate
05:21PM 60.0306 -127.0575 101° East  Level FlightAware Approximate
05:22PM 60.0012 -126.7764 102° East  Level FlightAware Approximate
05:23PM 59.9712 -126.4958 102° East  Level FlightAware Approximate
05:24PM 59.9406 -126.2157 102° East  Level FlightAware Approximate
05:25PM 59.9087 -125.9365 103° East  Level FlightAware Approximate
05:26PM 59.8761 -125.6579 103° East  Level FlightAware Approximate
05:27PM 59.8428 -125.3798 103° East  Level FlightAware Approximate
05:28PM 59.8090 -125.1023 104° East  Level FlightAware Approximate
05:29PM 59.7745 -124.8254 104° East  Level FlightAware Approximate
05:30PM 59.7395 -124.5491 104° East  Level FlightAware Approximate
05:31PM 59.7039 -124.2733 104° East  Level FlightAware Approximate
05:32PM 59.6678 -123.9982 104° East  Level FlightAware Approximate
05:33PM 59.6310 -123.7236 105° East  Level FlightAware Approximate
05:34PM 59.5937 -123.4496 105° East  Level FlightAware Approximate
05:35PM 59.5558 -123.1762 105° East  Level FlightAware Approximate
05:36PM 59.5174 -122.9035 105° East  Level FlightAware Approximate
05:37PM 59.4784 -122.6314 106° East  Level FlightAware Approximate
05:38PM 59.4388 -122.3599 106° East  Level FlightAware Approximate
05:39PM 59.3987 -122.0891 106° East  Level FlightAware Approximate
05:40PM 59.3579 -121.8189 106° East  Level FlightAware Approximate
05:41PM 59.3167 -121.5493 107° East  Level FlightAware Approximate
05:42PM 59.2749 -121.2804 107° East  Level FlightAware Approximate
05:43PM 59.2325 -121.0122 107° East  Level FlightAware Approximate
05:44PM 59.1896 -120.7447 107° East  Level FlightAware Approximate
05:45PM 59.1461 -120.4778 108° East  Level FlightAware Approximate
05:46PM 59.1021 -120.2116 108° East  Level FlightAware Approximate
05:46PM 58.7333 -118.1000 108° East 600 690 35,000  Level Edmonton Center
05:47PM 59.0578 -119.9460 108° East  Level FlightAware Approximate
05:47PM 58.6667 -117.8500 117° Southeast 560 644 35,000  Level Edmonton Center
05:48PM 59.0140 -119.6803 108° East  Level FlightAware Approximate
05:48PM 58.6167 -117.5333 107° East 570 656 35,000  Level Edmonton Center
05:49PM 58.9696 -119.4154 108° East  Level FlightAware Approximate
05:49PM 58.5500 -117.2500 114° Southeast 580 667 35,000  Level Edmonton Center
05:50PM 58.9246 -119.1512 108° East  Level FlightAware Approximate
05:50PM 58.5000 -116.9333 107° East 570 656 35,000  Level Edmonton Center
05:51PM 58.8792 -118.8876 108° East  Level FlightAware Approximate
05:51PM 58.4667 -116.6500 103° East 560 644 35,000  Level Edmonton Center
05:52PM 58.4333 -116.3500 102° East 570 656 35,000  Level Edmonton Center
05:53PM 58.4000 -116.0333 101° East 560 644 35,000  Level Edmonton Center
05:54PM 58.3500 -115.7667 110° East 560 644 35,000  Level Edmonton Center
05:55PM 58.3000 -115.4500 107° East 560 644 35,000  Level Edmonton Center
05:56PM 58.2667 -115.1833 103° East 560 644 35,000  Level Edmonton Center
05:57PM 58.2167 -114.8833 107° East 560 644 35,000  Level Edmonton Center
05:58PM 58.1833 -114.6167 103° East 560 644 35,000  Level Edmonton Center
05:59PM 58.1333 -114.3000 107° East 560 644 35,000  Level Edmonton Center
06:00PM 58.0833 -114.0333 109° East 560 644 35,000  Level Edmonton Center
06:01PM 58.0333 -113.7667 109° East 560 644 35,000  Level Edmonton Center
06:02PM 58.0000 -113.4667 102° East 550 633 35,000  Level Edmonton Center
06:03PM 57.9500 -113.1833 108° East 550 633 35,000  Level Edmonton Center
06:04PM 57.9000 -112.9167 109° East 550 633 35,000  Level Edmonton Center
06:05PM 57.8500 -112.6667 111° Southeast 550 633 35,000  Level Edmonton Center
06:06PM 57.8000 -112.3667 107° East 550 633 35,000  Level Edmonton Center
06:07PM 57.7500 -112.1000 109° East 550 633 35,000  Level Edmonton Center
06:08PM 57.7000 -111.8000 107° East 550 633 35,000  Level Edmonton Center
06:09PM 57.6500 -111.5333 109° East 550 633 35,000  Level Edmonton Center
06:10PM 57.6167 -111.2667 103° East 550 633 35,000  Level Edmonton Center
06:11PM 57.5500 -111.0000 115° Southeast 550 633 35,000  Level Edmonton Center
06:12PM 57.5000 -110.7500 110° East 550 633 35,000  Level Edmonton Center
06:13PM 57.4500 -110.4500 107° East 550 633 35,000  Level Edmonton Center
06:14PM 57.3667 -110.2167 123° Southeast 550 633 35,000  Level Edmonton Center
06:15PM 57.3000 -109.9500 115° Southeast 550 633 35,000  Level Edmonton Center
06:16PM 57.2167 -109.7000 122° Southeast 550 633 35,000  Level Edmonton Center
06:17PM 57.1667 -109.4667 111° Southeast 550 633 35,000  Level Edmonton Center
06:18PM 57.0833 -109.2000 120° Southeast 540 621 35,000  Level Edmonton Center
06:19PM 57.0167 -108.9500 116° Southeast 540 621 35,000  Level Edmonton Center
06:20PM 56.9333 -108.7000 121° Southeast 540 621 35,000  Level Edmonton Center
06:21PM 56.8500 -108.4667 123° Southeast 540 621 35,000  Level Edmonton Center
06:22PM 56.7833 -108.2167 116° Southeast 540 621 35,000  Level Edmonton Center
06:23PM 56.7167 -107.9833 117° Southeast 540 621 35,000  Level Edmonton Center
06:24PM 56.6167 -107.7333 126° Southeast 540 621 35,000  Level Edmonton Center
06:26PM 56.4833 -107.2833 118° Southeast 550 633 35,000  Level Winnipeg Center
06:27PM 56.4000 -107.0500 123° Southeast 550 633 35,000  Level Winnipeg Center
06:28PM 56.3167 -106.7667 118° Southeast 540 621 35,000  Level Edmonton Center
06:29PM 56.2500 -106.5500 119° Southeast 540 621 35,000  Level Edmonton Center
06:30PM 56.1667 -106.3000 121° Southeast 540 621 35,000  Level Edmonton Center
06:31PM 56.0833 -106.0833 125° Southeast 540 621 35,000  Level Edmonton Center
06:32PM 56.0000 -105.8667 124° Southeast 540 621 35,000  Level Edmonton Center
06:33PM 55.9167 -105.6333 122° Southeast 540 621 35,000  Level Edmonton Center
06:34PM 55.8167 -105.4167 129° Southeast 540 621 35,000  Level Edmonton Center
06:35PM 55.7333 -105.1667 121° Southeast 540 621 35,000  Level Edmonton Center
06:36PM 55.6500 -104.9667 126° Southeast 540 621 35,000  Level Edmonton Center
06:37PM 55.5667 -104.7500 124° Southeast 540 621 35,000  Level Edmonton Center
06:38PM 55.4833 -104.5500 126° Southeast 540 621 35,000  Level Edmonton Center
06:39PM 55.3833 -104.3000 125° Southeast 540 621 35,000  Level Edmonton Center
06:40PM 55.3000 -104.1167 129° Southeast 540 621 35,000  Level Winnipeg Center
06:41PM 55.2167 -103.9000 124° Southeast 540 621 35,000  Level Winnipeg Center
06:42PM 55.1167 -103.7000 131° Southeast 540 621 35,000  Level Winnipeg Center
06:43PM 55.0333 -103.4833 124° Southeast 540 621 35,000  Level Winnipeg Center
06:44PM 54.9333 -103.2667 129° Southeast 540 621 35,000  Level Winnipeg Center
06:45PM 54.8500 -103.0667 126° Southeast 540 621 35,000  Level Winnipeg Center
06:46PM 54.7667 -102.8500 124° Southeast 540 621 35,000  Level Winnipeg Center
06:47PM 54.6667 -102.6167 126° Southeast 530 610 35,000  Level Edmonton Center
06:48PM 54.5667 -102.4167 131° Southeast 530 610 35,000  Level Edmonton Center
06:49PM 54.4833 -102.2167 126° Southeast 530 610 35,000  Level Edmonton Center
06:50PM 54.4000 -102.0333 128° Southeast 530 610 35,000  Level Edmonton Center
06:51PM 54.3000 -101.8333 131° Southeast 530 610 35,000  Level Edmonton Center
06:52PM 54.2167 -101.6000 121° Southeast 520 598 35,000  Level Edmonton Center
06:53PM 54.1167 -101.4167 133° Southeast 530 610 35,000  Level Edmonton Center
06:54PM 54.0333 -101.2167 125° Southeast 530 610 35,000  Level Edmonton Center
06:55PM 53.9167 -101.0500 140° Southeast 530 610 35,000  Level Edmonton Center
06:56PM 53.8000 -100.9167 146° Southeast 520 598 35,000  Level Edmonton Center
06:57PM 53.6667 -100.7667 146° Southeast 530 610 35,000  Level Edmonton Center
06:58PM 53.5500 -100.6667 153° Southeast 520 598 35,000  Level Edmonton Center
06:59PM 53.4333 -100.5333 146° Southeast 510 587 35,000  Level Edmonton Center
07:00PM 53.3000 -100.4000 149° Southeast 520 598 35,000  Level Edmonton Center
07:01PM 53.1667 -100.2833 152° Southeast 520 598 35,000  Level Edmonton Center
07:02PM 53.0500 -100.1500 145° Southeast 520 598 35,000  Level Edmonton Center
07:03PM 52.9167 -100.0000 146° Southeast 520 598 35,000  Level Edmonton Center
07:04PM 52.8000 -99.9000 153° Southeast 520 598 35,000  Level Edmonton Center
07:05PM 52.6667 -99.7833 152° Southeast 520 598 35,000  Level Edmonton Center
07:06PM 52.5500 -99.6167 139° Southeast 520 598 35,000  Level Edmonton Center
07:07PM 52.4167 -99.5333 159° South 520 598 35,000  Level Edmonton Center
07:08PM 52.3000 -99.3833 142° Southeast 520 598 35,000  Level Edmonton Center
07:09PM 52.1667 -99.2833 155° Southeast 520 598 35,000  Level Edmonton Center
07:10PM 52.0500 -99.1333 142° Southeast 520 598 35,000  Level Edmonton Center
07:11PM 51.9167 -99.0500 159° South 510 587 35,000  Level Edmonton Center
07:12PM 51.8000 -98.9000 141° Southeast 510 587 35,000  Level Edmonton Center
07:13PM 51.6667 -98.8000 155° Southeast 510 587 35,000  Level Edmonton Center
07:14PM 51.5500 -98.6833 148° Southeast 510 587 35,000  Level Edmonton Center
07:15PM 51.4167 -98.5667 151° Southeast 510 587 35,000  Level Edmonton Center
07:16PM 51.3000 -98.4500 148° Southeast 510 587 35,000  Level Edmonton Center
07:17PM 51.1667 -98.3333 151° Southeast 510 587 35,000  Level Edmonton Center
07:18PM 51.0667 -98.2167 144° Southeast 500 575 35,000  Level Edmonton Center
07:19PM 50.9333 -98.1333 158° South 510 587 35,000  Level Edmonton Center
07:20PM 50.8167 -97.9833 141° Southeast 510 587 35,000  Level Edmonton Center
07:21PM 50.7000 -97.9000 156° South 510 587 35,000  Level Edmonton Center
07:22PM 50.5667 -97.8167 158° South 510 587 35,000 540 Level Winnipeg Center
07:23PM 50.4333 -97.7000 151° Southeast 510 587 36,200 660 Climbing Winnipeg Center
07:25PM 50.2639 -97.5456 150° Southeast  Level FlightAware Approximate
07:25PM 50.2000 -97.4833 150° Southeast 500 575 37,000  Level Winnipeg Center
07:26PM 50.0833 -97.3833 151° Southeast 510 587 37,000  Level Winnipeg Center
07:27PM 49.9500 -97.2500 147° Southeast 510 587 37,000  Level Winnipeg Center
07:28PM 49.8333 -97.1500 151° Southeast 510 587 37,000  Level Winnipeg Center
07:29PM 49.7167 -97.0167 144° Southeast 510 587 37,000  Level Winnipeg Center
07:30PM 49.6000 -96.9167 151° Southeast 510 587 37,000  Level Winnipeg Center
07:31PM 49.4667 -96.7833 147° Southeast 510 587 37,000  Level Winnipeg Center
07:32PM 49.3500 -96.6833 151° Southeast 500 575 37,000  Level Winnipeg Center
07:33PM 49.2333 -96.5833 151° Southeast 500 575 37,000  Level Winnipeg Center
07:34PM 49.1167 -96.4500 143° Southeast 500 575 37,000  Level Winnipeg Center
07:35PM 48.9833 -96.3500 154° Southeast 500 575 37,000  Level Winnipeg Center
07:36PM 48.8667 -96.2333 147° Southeast 500 575 37,000  Level Winnipeg Center
07:37PM 48.7500 -96.1333 151° Southeast 510 587 37,000  Level Winnipeg Center
07:38PM 48.6167 -96.0333 154° Southeast 500 575 37,000 -60 Level Winnipeg Center
07:39PM 48.5069 -95.9297 148° Southeast 505 581 36,900  Descending Minneapolis Center
07:40PM 48.3839 -95.8300 152° Southeast 504 580 37,000  Climbing Minneapolis Center
07:42PM 48.2597 -95.7286 151° Southeast 505 581 37,000 -60 Level Minneapolis Center
07:43PM 48.1122 -95.6100 152° Southeast 503 579 36,900  Descending Minneapolis Center
07:44PM 47.9661 -95.4922 152° Southeast 500 575 37,000  Climbing Minneapolis Center
07:45PM 47.8375 -95.3914 152° Southeast 502 578 37,000  Level Minneapolis Center
07:46PM 47.7158 -95.2942 152° Southeast 501 577 37,000  Level Minneapolis Center
07:47PM 47.5678 -95.1786 152° Southeast 501 577 37,000  Level Minneapolis Center
07:48PM 47.4483 -95.0814 151° Southeast 496 571 37,000 -60 Level Minneapolis Center
07:49PM 47.3247 -94.9864 152° Southeast 502 578 36,900 -60 Descending Minneapolis Center
07:50PM 47.1772 -94.8711 152° Southeast 504 580 36,900  Level Minneapolis Center
07:51PM 47.0539 -94.7792 153° Southeast 502 578 37,000  Climbing Minneapolis Center
07:52PM 46.9056 -94.6647 152° Southeast 504 580 37,000 -60 Level Minneapolis Center
07:53PM 46.7811 -94.5708 153° Southeast 506 582 36,900  Descending Minneapolis Center
07:54PM 46.6575 -94.4778 153° Southeast 505 581 37,000  Climbing Minneapolis Center
07:55PM 46.5322 -94.3847 153° Southeast 508 585 37,000  Level Minneapolis Center
07:56PM 46.3831 -94.2714 152° Southeast 508 585 37,000  Level Minneapolis Center
07:58PM 46.2578 -94.1794 153° Southeast 507 583 37,000  Level Minneapolis Center
07:59PM 46.1361 -94.0894 153° Southeast 508 585 37,000  Level Minneapolis Center
08:00PM 45.9856 -93.9800 153° Southeast 508 585 37,000  Level Minneapolis Center
08:01PM 45.8344 -93.8692 153° Southeast 509 586 37,000  Level Minneapolis Center
08:02PM 45.7078 -93.7781 153° Southeast 510 587 37,000  Level Minneapolis Center
08:03PM 45.5806 -93.6856 153° Southeast 513 590 37,000  Level Minneapolis Center
08:04PM 45.4542 -93.5933 153° Southeast 512 589 37,000  Level Minneapolis Center
08:05PM 45.3014 -93.4836 153° Southeast 511 588 37,000  Level Minneapolis Center
08:06PM 45.1744 -93.3908 153° Southeast 512 589 37,000  Level Minneapolis Center
08:07PM 45.0839 -93.2256 128° Southeast 530 610 37,000  Level Minneapolis Center
08:08PM 45.0058 -93.0403 121° Southeast 541 623 37,000  Level Minneapolis Center
08:09PM 44.9292 -92.8558 120° Southeast 539 620 37,000  Level Minneapolis Center
08:10PM 44.8672 -92.7094 121° Southeast 539 620 37,000  Level Minneapolis Center
08:11PM 44.7733 -92.4908 121° Southeast 541 623 37,000  Level Minneapolis Center
08:12PM 44.6956 -92.3100 121° Southeast 540 621 37,000  Level Minneapolis Center
08:13PM 44.6017 -92.0939 121° Southeast 541 623 37,000  Level Minneapolis Center
08:14PM 44.5242 -91.9122 121° Southeast 542 624 37,000  Level Minneapolis Center
08:15PM 44.4444 -91.7333 122° Southeast 543 625 37,000  Level Minneapolis Center
08:16PM 44.3656 -91.5542 122° Southeast 543 625 37,000  Level Minneapolis Center
08:17PM 44.2850 -91.3747 122° Southeast 545 627 37,000 -660 Level Minneapolis Center
08:18PM 44.2053 -91.1956 122° Southeast 545 627 35,700 -1,800 Descending Minneapolis Center
08:19PM 44.1097 -90.9781 121° Southeast 548 631 33,400 -1,980 Descending Minneapolis Center
08:21PM 44.0331 -90.8086 122° Southeast 537 618 31,700 -1,200 Descending Minneapolis Center
08:22PM 43.9594 -90.6469 122° Southeast 512 589 31,000 -1,080 Descending Minneapolis Center
08:23PM 43.8964 -90.5094 122° Southeast 496 571 29,500 -1,380 Descending Minneapolis Center
08:24PM 43.8111 -90.3275 123° Southeast 485 558 28,200 -1,440 Descending Minneapolis Center
08:25PM 43.7419 -90.1736 122° Southeast 476 548 26,600 -1,620 Descending Minneapolis Center
08:26PM 43.6608 -90.0000 123° Southeast 465 535 24,900 -1,500 Descending Minneapolis Center
08:27PM 43.5939 -89.8550 122° Southeast 454 522 23,500 -1,260 Descending Minneapolis Center
08:27PM 43.5706 -89.8092 125° Southeast 447 514 23,100 -1,260 Descending Chicago Center
08:28PM 43.4850 -89.6956 136° Southeast 428 493 21,700 -1,440 Descending Chicago Center
08:29PM 43.3761 -89.5822 143° Southeast 420 483 20,200 -1,500 Descending Chicago Center
08:30PM 43.2844 -89.4872 143° Southeast 415 478 18,700 -1,260 Descending Chicago Center
08:31PM 43.1950 -89.3931 142° Southeast 410 472 17,700 -1,080 Descending Chicago Center
08:32PM 43.1011 -89.3231 151° Southeast 393 452 16,500 -1,200 Descending Chicago Center
08:33PM 43.0006 -89.2831 164° South 379 436 15,300 -1,260 Descending Chicago Center
08:34PM 42.8875 -89.2375 164° South 366 421 14,000 -1,140 Descending Chicago Center
08:35PM 42.7961 -89.1997 163° South 347 399 13,000 -780 Descending Chicago Center
08:36PM 42.7072 -89.1656 164° South 334 384 12,400 -540 Descending Chicago Center
08:37PM 42.6175 -89.1308 164° South 335 386 11,900 -600 Descending Chicago Center
08:38PM 42.5367 -89.0378 140° Southeast 349 402 11,200 -660 Descending Chicago Center
08:40PM 42.5022 -88.9214 112° Southeast 335 386 10,600 -540 Descending Chicago Center
08:41PM 42.4647 -88.7956 112° Southeast 366 421 10,100 -300 Descending Chicago Center
08:42PM 42.4253 -88.6642 112° Southeast 378 435 10,000 -60 Descending Chicago Center
08:43PM 42.3844 -88.5369 113° Southeast 372 428 10,000  Level Chicago Center
08:44PM 42.3142 -88.4056 126° Southeast 380 437 10,000  Level Chicago Center
08:45PM 42.2461 -88.3017 131° Southeast 371 427 10,000 -300 Level Chicago Center
08:46PM 42.1883 -88.2122 131° Southeast 324 373 9,400 -960 Descending Chicago Center
08:47PM 42.1314 -88.1247 131° Southeast 311 358 8,100 -1,200 Descending Chicago Center
08:48PM 42.0569 -88.0883 160° South 293 337 7,000 -540 Descending Chicago Center
08:49PM 41.9686 -88.0547 164° South 278 320 7,000  Level Chicago Center
08:50PM 41.9147 -88.0131 150° Southeast 249 287 7,000  Level Chicago Center
08:51PM 41.8833 -87.9167 114° Southeast 250 288 7,000  Level Chicago TRACON
08:52PM 41.8833 -87.8167 90° East 246 283 7,000 -480 Level Chicago TRACON
08:53PM 41.8833 -87.7500 90° East 235 270 6,100 -1,320 Descending Chicago TRACON
08:54PM 41.8833 -87.6500 90° East 228 262 4,500 -1,020 Descending Chicago TRACON
08:55PM 41.9500 -87.6333 11° North 222 255 4,000 -300 Descending Chicago TRACON
08:56PM 41.9667 -87.6833 294° West 172 198 4,000 -660 Level Chicago TRACON
08:57PM 41.9667 -87.7500 270° West 170 196 2,800 -1,140 Descending Chicago TRACON
08:58PM 41.9667 -87.8000 270° West 159 183 1,800 -900 Descending Chicago TRACON
08:59PM 41.9667 -87.8667 270° West 149 171 1,000 -840 Descending Chicago TRACON
09:01PM 41.9667 -87.9000 294° West  Level FlightAware Approximate